createdAt,value
2022-11-24T05:06:57.200Z,99620.81
2022-11-24T05:10:18.185Z,99620.81
2022-11-24T05:13:20.226Z,99625.34
2022-11-24T05:16:22.530Z,99627.75
2022-11-24T05:19:26.299Z,99628.22
2022-11-24T05:22:32.496Z,99633.03
2022-11-24T05:25:35.340Z,99640.81
2022-11-24T05:28:37.624Z,99639.78
2022-11-24T05:31:39.718Z,99642.53
2022-11-24T05:34:42.013Z,99635.91
2022-11-24T05:37:44.039Z,99644.72
2022-11-24T05:40:46.400Z,99651.97
2022-11-24T05:43:48.445Z,99655.91
2022-11-24T05:46:51.163Z,99648.25
2022-11-24T05:49:53.258Z,99651.16
2022-11-24T05:52:55.557Z,99663.22
2022-11-24T05:55:57.784Z,99653.75
2022-11-24T05:59:00.929Z,99661.16
2022-11-24T06:02:05.239Z,99667.78
2022-11-24T06:05:08.262Z,99675.00
2022-11-24T06:08:10.308Z,99680.00
2022-11-24T06:11:18.531Z,99677.56
2022-11-24T06:14:20.592Z,99681.41
2022-11-24T06:17:22.918Z,99683.66
2022-11-24T06:20:28.503Z,99686.66
2022-11-24T06:23:33.768Z,99679.16
2022-11-24T06:26:35.840Z,99691.84
2022-11-24T06:29:38.778Z,99697.31
2022-11-24T06:32:49.156Z,99706.06
2022-11-24T06:35:52.396Z,99713.59
2022-11-24T06:38:54.708Z,99710.63
2022-11-24T06:41:57.420Z,99714.31
2022-11-24T06:45:00.326Z,99720.69
2022-11-24T06:48:02.839Z,99722.62
2022-11-24T06:51:07.338Z,99726.84
2022-11-24T06:54:13.780Z,99735.56
2022-11-24T06:57:15.846Z,99732.91
2022-11-24T07:00:18.699Z,99743.03
2022-11-24T07:03:20.809Z,99744.44
2022-11-24T07:06:25.204Z,99741.63
2022-11-24T07:09:27.426Z,99757.09
2022-11-24T07:12:35.780Z,99764.87
2022-11-24T07:15:40.275Z,99766.56
2022-11-24T07:18:47.375Z,99775.13
2022-11-24T07:21:49.475Z,99772.94
2022-11-24T07:24:51.904Z,99778.75
2022-11-24T07:27:57.899Z,99790.25
2022-11-24T07:31:12.309Z,99780.87
2022-11-24T07:34:14.874Z,99776.84
2022-11-24T07:37:17.299Z,99782.28
2022-11-24T07:40:19.352Z,99792.00
2022-11-24T07:43:21.694Z,99789.88
2022-11-24T07:46:24.159Z,99789.13
2022-11-24T07:49:26.562Z,99792.31
2022-11-24T07:52:28.606Z,99793.03
2022-11-24T07:55:30.945Z,99798.72
2022-11-24T07:58:35.866Z,99801.59
2022-11-24T08:01:38.224Z,99805.03
2022-11-24T08:04:40.561Z,99801.94
2022-11-24T08:07:42.699Z,99794.97
2022-11-24T08:10:45.038Z,99792.94
2022-11-24T08:13:47.279Z,99798.94
2022-11-24T08:16:49.813Z,99790.28
2022-11-24T08:19:51.876Z,99791.00
2022-11-24T08:22:58.339Z,99803.41
2022-11-24T08:26:05.337Z,99805.19
2022-11-24T08:29:07.755Z,99809.47
2022-11-24T08:32:10.885Z,99816.03
2022-11-24T08:35:14.231Z,99815.91
2022-11-24T08:38:17.285Z,99825.25
2022-11-24T08:41:19.581Z,99829.78
2022-11-24T08:44:21.599Z,99830.94
2022-11-24T08:47:23.924Z,99828.84
2022-11-24T08:50:26.306Z,99836.84
2022-11-24T08:53:28.584Z,99829.69
2022-11-24T08:56:34.293Z,99841.97
2022-11-24T08:59:37.106Z,99840.06
2022-11-24T09:02:39.403Z,99832.41
2022-11-24T09:05:57.262Z,99842.53
2022-11-24T09:08:59.927Z,99841.19
2022-11-24T09:12:02.212Z,99843.16
2022-11-24T09:15:04.976Z,99848.22
2022-11-24T09:18:07.586Z,99843.66
2022-11-24T09:21:12.444Z,99845.44
2022-11-24T09:24:16.481Z,99848.25
2022-11-24T09:27:18.507Z,99856.91
2022-11-24T09:30:20.977Z,99847.31
2022-11-24T09:33:23.120Z,99853.59
2022-11-24T09:36:25.574Z,99859.03
2022-11-24T09:39:27.665Z,99852.56
2022-11-24T09:42:40.837Z,99867.91
2022-11-24T09:49:14.415Z,99854.06
2022-11-24T09:52:23.147Z,99855.69
2022-11-24T09:55:32.432Z,99862.63
2022-11-24T09:58:45.871Z,99864.91
2022-11-24T10:01:50.511Z,99851.06
2022-11-24T10:04:54.716Z,99864.87
2022-11-24T10:08:25.794Z,99853.88
2022-11-24T10:11:38.116Z,99861.00
2022-11-24T10:15:19.087Z,99883.62
2022-11-24T10:18:33.743Z,99860.91
2022-11-24T10:21:54.511Z,99860.91
2022-11-24T10:25:19.289Z,99863.66
2022-11-24T10:28:21.378Z,99874.75
2022-11-24T10:31:36.119Z,99863.37
2022-11-24T10:34:43.401Z,99868.31
2022-11-24T10:38:02.325Z,99867.81
2022-11-24T10:41:20.261Z,99869.03
2022-11-24T10:44:22.644Z,99872.94
2022-11-24T10:47:24.712Z,99879.53
2022-11-24T10:50:30.511Z,99887.47
2022-11-24T10:53:35.406Z,99899.91
2022-11-24T10:56:42.383Z,99893.56
2022-11-24T10:59:44.426Z,99895.47
2022-11-24T11:02:48.773Z,99905.34
2022-11-24T11:05:56.902Z,99908.28
2022-11-24T11:09:20.986Z,99911.75
2022-11-24T11:12:47.655Z,99910.63
2022-11-24T11:15:50.388Z,99916.41
2022-11-24T11:18:53.177Z,99914.53
2022-11-24T11:22:02.036Z,99919.41
2022-11-24T11:25:10.132Z,99921.62
2022-11-24T11:28:18.816Z,99922.56
2022-11-24T11:31:22.775Z,99923.91
2022-11-24T11:34:35.277Z,99920.06
2022-11-24T11:37:37.337Z,99924.50
2022-11-24T11:40:43.570Z,99919.47
2022-11-24T11:43:50.564Z,99921.31
2022-11-24T11:46:54.801Z,99918.19
2022-11-24T11:49:57.679Z,99921.91
2022-11-24T11:53:18.641Z,99918.44
2022-11-24T11:56:30.685Z,99926.66
2022-11-24T11:59:55.035Z,99922.03
2022-11-24T12:03:42.452Z,99933.22
2022-11-24T12:07:06.464Z,99923.72
2022-11-24T12:10:25.312Z,99931.28
2022-11-24T12:13:53.763Z,99936.06
2022-11-24T12:17:08.866Z,99925.06
2022-11-24T12:20:37.765Z,99931.25
2022-11-24T12:23:52.097Z,99921.38
2022-11-24T12:27:03.924Z,99919.03
2022-11-24T12:30:12.712Z,99918.97
2022-11-24T12:33:30.162Z,99915.56
2022-11-24T12:36:41.168Z,99934.56
2022-11-24T12:40:03.771Z,99917.19
2022-11-24T12:43:22.626Z,99913.19
2022-11-24T12:46:51.922Z,99934.94
2022-11-24T12:50:06.016Z,99938.94
2022-11-24T12:53:21.939Z,99942.16
2022-11-24T12:56:43.329Z,99962.37
2022-11-24T13:00:07.779Z,99961.03
2022-11-24T13:03:31.153Z,99959.38
2022-11-24T13:07:10.933Z,99971.13
2022-11-24T13:10:55.479Z,99962.91
2022-11-24T13:14:06.820Z,99971.47
2022-11-24T13:17:40.601Z,99958.91
2022-11-24T13:20:52.516Z,99973.22
2022-11-24T13:23:59.616Z,99978.00
2022-11-24T13:27:18.767Z,99976.63
2022-11-24T13:30:35.828Z,99982.28
2022-11-24T13:33:38.846Z,99986.84
2022-11-24T13:36:53.644Z,99978.87
2022-11-24T13:40:11.734Z,99977.84
2022-11-24T13:43:13.787Z,99996.50
2022-11-24T13:46:56.616Z,99985.34
2022-11-24T13:50:04.717Z,99984.22
2022-11-24T13:53:18.224Z,99989.34
2022-11-24T13:56:24.512Z,99990.91
2022-11-24T13:59:32.923Z,99997.06
2022-11-24T14:02:35.162Z,100004.53
2022-11-24T14:05:41.094Z,99994.91
2022-11-24T14:08:45.716Z,100004.59
2022-11-24T14:11:59.647Z,100006.22
2022-11-24T14:15:22.359Z,100013.34
2022-11-24T14:18:24.937Z,100023.53
2022-11-24T14:21:42.303Z,100018.84
2022-11-24T14:24:50.803Z,100019.44
2022-11-24T14:27:52.941Z,100026.66
2022-11-24T14:31:10.056Z,100016.84
2022-11-24T14:34:12.098Z,100031.75
2022-11-24T14:37:14.457Z,100026.38
2022-11-24T14:40:45.098Z,100032.63
2022-11-24T14:43:47.514Z,100035.72
2022-11-24T14:46:50.534Z,100042.41
2022-11-24T14:49:54.125Z,100052.00
2022-11-24T14:52:58.428Z,100053.63
2022-11-24T14:56:21.210Z,100053.56
2022-11-24T14:59:25.889Z,100066.94
2022-11-24T15:02:48.284Z,100071.94
2022-11-24T15:05:56.041Z,100078.63
2022-11-24T15:08:58.499Z,100085.38
2022-11-24T15:12:06.608Z,100085.16
2022-11-24T15:15:15.050Z,100093.31
2022-11-24T15:18:35.704Z,100083.28
2022-11-24T15:21:38.009Z,100085.72
2022-11-24T15:24:50.996Z,100087.94
2022-11-24T15:27:53.388Z,100100.25
2022-11-24T15:31:01.468Z,100097.00
2022-11-24T15:34:03.860Z,100098.00
2022-11-24T15:37:05.906Z,100101.19
2022-11-24T15:40:10.356Z,100101.69
2022-11-24T15:43:29.490Z,100095.81
2022-11-24T15:46:38.061Z,100108.63
2022-11-24T15:49:40.449Z,100107.34
2022-11-24T15:52:43.267Z,100118.28
2022-11-24T15:55:45.628Z,100111.94
2022-11-24T15:58:48.486Z,100105.16
2022-11-24T16:01:50.817Z,100113.97
2022-11-24T16:04:53.392Z,100121.75
2022-11-24T16:07:55.546Z,100121.72
2022-11-24T16:10:57.932Z,100124.31
2022-11-24T16:14:00.115Z,100125.19
2022-11-24T16:17:03.154Z,100125.31
2022-11-24T16:20:05.956Z,100128.91
2022-11-24T16:23:08.272Z,100126.78
2022-11-24T16:26:10.420Z,100124.97
2022-11-24T16:29:12.880Z,100134.41
2022-11-24T16:32:14.970Z,100123.88
2022-11-24T16:35:17.638Z,100129.66
2022-11-24T16:38:20.348Z,100129.59
2022-11-24T16:41:23.137Z,100131.16
2022-11-24T16:44:25.216Z,100133.81
